createdAt,value
2022-12-01T00:01:15.545Z,22.77
2022-12-01T00:03:44.434Z,21.50
2022-12-01T00:06:15.615Z,23.00
2022-12-01T00:09:06.725Z,21.92
2022-12-01T00:11:34.015Z,21.33
2022-12-01T00:14:02.231Z,22.35
2022-12-01T00:16:30.600Z,22.17
2022-12-01T00:18:58.900Z,19.70
2022-12-01T00:21:27.212Z,19.60
2022-12-01T00:23:57.768Z,20.77
2022-12-01T00:26:26.212Z,20.33
2022-12-01T00:28:54.950Z,20.70
2022-12-01T00:31:23.265Z,21.67
2022-12-01T00:33:51.561Z,19.17
2022-12-01T00:36:19.863Z,19.45
2022-12-01T00:38:48.129Z,20.42
2022-12-01T00:41:18.356Z,18.92
2022-12-01T00:43:46.854Z,18.10
2022-12-01T00:46:15.153Z,17.38
2022-12-01T00:48:43.510Z,18.13
2022-12-01T00:51:11.713Z,18.27
2022-12-01T00:53:39.947Z,16.98
2022-12-01T00:56:08.781Z,17.23
2022-12-01T00:58:38.608Z,16.55
2022-12-01T01:01:07.195Z,16.45
2022-12-01T01:03:35.521Z,16.20
2022-12-01T01:06:07.496Z,15.90
2022-12-01T01:08:35.980Z,15.30
2022-12-01T01:11:04.400Z,15.38
2022-12-01T01:13:32.617Z,15.93
2022-12-01T01:16:03.651Z,16.00
2022-12-01T01:18:31.988Z,15.35
2022-12-01T01:21:00.274Z,14.75
2022-12-01T01:23:28.569Z,14.98
2022-12-01T01:26:02.584Z,14.20
2022-12-01T01:28:32.071Z,13.85
2022-12-01T01:31:01.749Z,15.70
2022-12-01T01:33:31.473Z,14.98
2022-12-01T01:36:00.372Z,14.18
2022-12-01T01:38:28.703Z,14.02
2022-12-01T01:40:57.031Z,13.70
2022-12-01T01:43:40.820Z,13.85
2022-12-01T01:46:11.619Z,13.20
2022-12-01T01:48:40.404Z,13.60
2022-12-01T01:51:08.959Z,13.25
2022-12-01T01:53:37.037Z,12.68
2022-12-01T01:56:05.445Z,12.23
2022-12-01T01:58:33.546Z,13.00
2022-12-01T02:01:01.734Z,11.98
2022-12-01T02:03:31.249Z,12.35
2022-12-01T02:06:04.528Z,12.00
2022-12-01T02:08:34.302Z,12.23
2022-12-01T02:11:48.596Z,11.18
2022-12-01T02:14:47.229Z,11.68
2022-12-01T02:17:31.065Z,11.30
2022-12-01T02:20:28.506Z,11.30
2022-12-01T02:23:05.969Z,10.70
2022-12-01T02:25:37.540Z,11.00
2022-12-01T02:28:26.673Z,10.55
2022-12-01T02:30:57.551Z,11.13
2022-12-01T02:33:26.976Z,9.85
2022-12-01T02:35:58.968Z,10.85
2022-12-01T02:38:29.851Z,10.10
2022-12-01T02:41:01.595Z,10.43
2022-12-01T02:43:32.786Z,10.32
2022-12-01T02:46:05.744Z,9.70
2022-12-01T02:48:35.068Z,9.45
2022-12-01T02:51:05.685Z,9.93
2022-12-01T02:53:33.787Z,9.38
2022-12-01T02:56:01.969Z,9.00
2022-12-01T02:58:30.119Z,9.40
2022-12-01T03:01:07.668Z,8.80
2022-12-01T03:03:46.246Z,9.70
2022-12-01T03:06:17.096Z,8.70
2022-12-01T03:08:49.568Z,8.50
2022-12-01T03:11:27.264Z,9.00
2022-12-01T03:14:01.364Z,10.23
2022-12-01T03:16:34.018Z,9.32
2022-12-01T03:19:04.196Z,7.82
2022-12-01T03:21:34.448Z,9.20
2022-12-01T03:24:07.616Z,8.60
2022-12-01T03:26:36.607Z,8.65
2022-12-01T03:29:06.849Z,8.25
2022-12-01T03:31:39.554Z,7.47
2022-12-01T03:34:10.486Z,7.70
2022-12-01T03:36:40.240Z,7.70
2022-12-01T03:39:10.044Z,7.72
2022-12-01T03:41:39.293Z,7.85
2022-12-01T03:44:09.282Z,7.00
2022-12-01T03:46:42.639Z,6.75
2022-12-01T03:49:10.948Z,7.47
2022-12-01T03:51:43.407Z,7.10
2022-12-01T03:54:13.622Z,6.85
2022-12-01T03:56:44.804Z,7.28
2022-12-01T03:59:13.254Z,7.90
2022-12-01T04:01:43.089Z,7.07
2022-12-01T04:04:12.762Z,6.85
2022-12-01T04:06:41.129Z,6.97
2022-12-01T04:09:09.532Z,5.97
2022-12-01T04:11:55.200Z,6.53
2022-12-01T04:14:23.710Z,6.78
2022-12-01T04:16:53.549Z,6.88
2022-12-01T04:19:21.929Z,6.47
2022-12-01T04:21:50.169Z,6.57
2022-12-01T04:24:18.336Z,5.85
2022-12-01T04:26:47.262Z,6.03
2022-12-01T04:29:15.569Z,5.75
2022-12-01T04:31:43.885Z,5.90
2022-12-01T04:34:13.557Z,6.28
2022-12-01T04:36:41.978Z,6.00
2022-12-01T04:39:10.190Z,6.30
2022-12-01T04:41:38.468Z,6.25
2022-12-01T04:44:06.957Z,5.97
2022-12-01T04:46:35.098Z,5.80
2022-12-01T04:49:03.281Z,5.55
2022-12-01T04:51:32.778Z,5.63
2022-12-01T04:54:00.893Z,5.30
2022-12-01T04:56:29.015Z,5.45
2022-12-01T04:58:59.030Z,5.63
2022-12-01T05:01:27.314Z,5.63
2022-12-01T05:03:55.457Z,5.70
2022-12-01T05:06:24.673Z,5.65
2022-12-01T05:08:56.309Z,5.03
2022-12-01T05:11:25.737Z,5.45
2022-12-01T05:13:53.954Z,5.25
2022-12-01T05:16:22.877Z,5.63
2022-12-01T05:18:51.433Z,4.82
2022-12-01T05:21:18.588Z,5.07
2022-12-01T05:23:46.718Z,5.10
2022-12-01T05:26:16.176Z,5.30
2022-12-01T05:28:44.287Z,7.68
2022-12-01T05:31:12.401Z,5.90
2022-12-01T05:33:40.672Z,7.25
2022-12-01T05:36:09.347Z,5.15
2022-12-01T05:38:37.643Z,5.05
2022-12-01T05:41:05.921Z,4.55
2022-12-01T05:43:35.515Z,6.78
2022-12-01T05:46:03.733Z,11.05
2022-12-01T05:48:31.922Z,11.52
2022-12-01T05:51:00.000Z,12.52
2022-12-01T05:53:28.102Z,14.35
2022-12-01T05:55:56.336Z,16.08
2022-12-01T05:58:24.602Z,18.95
2022-12-01T06:00:54.389Z,18.45
2022-12-01T06:03:22.745Z,15.45
2022-12-01T06:05:51.052Z,20.35
2022-12-01T06:08:19.549Z,24.50
2022-12-01T06:10:48.461Z,26.40
2022-12-01T06:13:16.820Z,29.98
2022-12-01T06:15:45.135Z,32.50
2022-12-01T06:18:14.810Z,59.08
2022-12-01T06:20:43.345Z,53.78
2022-12-01T06:23:11.628Z,46.58
2022-12-01T06:25:39.868Z,54.97
2022-12-01T06:28:07.941Z,58.22
2022-12-01T06:30:36.119Z,50.70
2022-12-01T06:33:04.348Z,49.30
2022-12-01T06:35:33.877Z,52.83
2022-12-01T06:38:02.188Z,50.85
2022-12-01T06:40:30.272Z,49.50
2022-12-01T06:43:00.846Z,49.88
2022-12-01T06:45:29.097Z,48.33
2022-12-01T06:47:57.318Z,48.08
2022-12-01T06:50:25.768Z,52.90
2022-12-01T06:52:55.634Z,53.70
2022-12-01T06:55:23.761Z,55.60
2022-12-01T06:57:52.017Z,53.60
2022-12-01T07:00:20.916Z,68.18
2022-12-01T07:02:49.132Z,66.50
2022-12-01T07:05:17.514Z,62.63
2022-12-01T07:07:45.707Z,74.25
2022-12-01T07:10:15.425Z,68.78
2022-12-01T07:12:43.606Z,70.85
2022-12-01T07:15:12.357Z,65.72
2022-12-01T07:17:40.496Z,66.22
2022-12-01T07:20:11.378Z,74.05
2022-12-01T07:22:40.036Z,76.50
2022-12-01T07:25:08.952Z,70.45
2022-12-01T07:27:38.529Z,67.47
2022-12-01T07:30:08.103Z,74.72
2022-12-01T07:32:36.997Z,68.55
2022-12-01T07:35:05.473Z,74.03
2022-12-01T07:37:33.815Z,71.18
2022-12-01T07:40:01.927Z,68.03
2022-12-01T07:42:30.136Z,71.65
2022-12-01T07:44:59.628Z,69.72
2022-12-01T07:47:27.810Z,70.85
2022-12-01T07:49:55.949Z,67.00
2022-12-01T07:52:24.115Z,70.43
2022-12-01T07:54:52.773Z,69.10
2022-12-01T07:57:21.001Z,63.85
2022-12-01T07:59:49.425Z,61.47
2022-12-01T08:02:19.461Z,61.60
2022-12-01T08:04:47.719Z,60.58
2022-12-01T08:07:15.797Z,64.63
2022-12-01T08:09:44.972Z,60.78
2022-12-01T08:12:13.080Z,62.08
2022-12-01T08:14:41.231Z,59.67
2022-12-01T08:17:09.404Z,59.53
2022-12-01T08:19:38.965Z,63.25
2022-12-01T08:22:07.124Z,64.80
2022-12-01T08:24:35.341Z,59.33
2022-12-01T08:27:03.443Z,62.33
2022-12-01T08:29:31.669Z,60.25
2022-12-01T08:32:00.037Z,60.70
2022-12-01T08:34:28.288Z,61.60
2022-12-01T08:36:57.805Z,72.90
2022-12-01T08:39:25.981Z,76.28
2022-12-01T08:41:54.081Z,79.65
2022-12-01T08:44:22.310Z,75.05
2022-12-01T08:46:50.866Z,84.78
2022-12-01T08:49:19.119Z,83.60
2022-12-01T08:51:47.193Z,77.38
2022-12-01T08:54:16.718Z,79.30
2022-12-01T08:56:45.547Z,77.32
2022-12-01T08:59:13.647Z,76.72
2022-12-01T09:01:52.261Z,73.97
2022-12-01T09:04:21.092Z,78.40
2022-12-01T09:06:49.896Z,71.97
2022-12-01T09:09:20.210Z,72.97
2022-12-01T09:11:48.576Z,72.95
2022-12-01T09:14:17.501Z,82.38
2022-12-01T09:16:46.291Z,73.13
2022-12-01T09:19:17.893Z,69.70
2022-12-01T09:21:50.377Z,72.15
2022-12-01T09:24:19.881Z,64.38
2022-12-01T09:26:48.024Z,64.78
2022-12-01T09:29:16.638Z,61.83
2022-12-01T09:31:44.897Z,52.97
2022-12-01T09:34:15.692Z,56.75
2022-12-01T09:36:43.853Z,52.10
2022-12-01T09:39:13.874Z,56.83
2022-12-01T09:41:45.187Z,53.17
2022-12-01T09:44:16.636Z,53.00
2022-12-01T09:46:45.737Z,54.53
2022-12-01T09:49:18.481Z,52.53
2022-12-01T09:51:46.648Z,54.95
2022-12-01T09:54:15.306Z,58.45
2022-12-01T09:56:46.131Z,59.10
2022-12-01T09:59:18.780Z,57.20
2022-12-01T10:01:49.389Z,55.08
2022-12-01T10:04:18.852Z,51.90
2022-12-01T10:06:49.340Z,48.97
2022-12-01T10:09:22.161Z,48.72
2022-12-01T10:11:52.927Z,48.97
2022-12-01T10:14:22.163Z,46.03
2022-12-01T10:16:55.444Z,48.28
2022-12-01T10:19:26.030Z,47.13
2022-12-01T10:22:06.525Z,45.00
2022-12-01T10:24:43.648Z,45.60
2022-12-01T10:27:17.656Z,42.83
2022-12-01T10:29:48.311Z,43.42
2022-12-01T10:32:19.216Z,41.60
2022-12-01T10:34:47.915Z,39.95
2022-12-01T10:37:18.476Z,41.83
2022-12-01T10:39:48.198Z,39.22
2022-12-01T10:42:19.717Z,40.72
2022-12-01T10:44:47.885Z,40.47
2022-12-01T10:47:19.748Z,51.17
2022-12-01T10:49:48.480Z,47.00
2022-12-01T10:52:33.385Z,47.90
2022-12-01T10:55:01.673Z,49.03
2022-12-01T10:57:31.716Z,53.53
2022-12-01T11:00:01.966Z,52.95
2022-12-01T11:02:31.307Z,50.92
2022-12-01T11:05:00.208Z,51.22
2022-12-01T11:07:29.774Z,51.38
2022-12-01T11:10:17.162Z,53.00
2022-12-01T11:12:47.590Z,61.88
2022-12-01T11:15:20.512Z,54.90
2022-12-01T11:17:48.632Z,60.00
2022-12-01T11:20:28.522Z,54.67
2022-12-01T11:23:12.928Z,56.58
2022-12-01T11:25:41.197Z,56.22
2022-12-01T11:28:20.668Z,51.95
2022-12-01T11:30:53.792Z,48.88
2022-12-01T11:33:24.614Z,47.28
2022-12-01T11:35:52.780Z,46.92
2022-12-01T11:38:30.277Z,45.28
2022-12-01T11:40:59.127Z,46.70
2022-12-01T11:43:29.683Z,47.67
2022-12-01T11:45:59.669Z,49.67
2022-12-01T11:48:28.765Z,52.95
2022-12-01T11:51:08.484Z,53.80
2022-12-01T11:53:37.541Z,61.38
2022-12-01T11:56:24.700Z,59.10
2022-12-01T11:59:03.257Z,58.53
2022-12-01T12:01:37.139Z,56.58
2022-12-01T12:04:15.869Z,54.70
2022-12-01T12:06:46.938Z,53.05
2022-12-01T12:09:45.215Z,52.65
2022-12-01T12:12:19.790Z,52.05
2022-12-01T12:14:55.346Z,35.60
2022-12-01T12:17:34.233Z,29.42
2022-12-01T12:20:27.554Z,33.47
2022-12-01T12:23:00.785Z,30.83
2022-12-01T12:25:33.071Z,33.03
2022-12-01T12:28:10.730Z,40.40
2022-12-01T12:30:42.948Z,44.80
2022-12-01T12:33:33.675Z,42.33
2022-12-01T12:36:05.863Z,40.85
2022-12-01T12:38:51.167Z,54.45
2022-12-01T12:41:29.672Z,54.33
2022-12-01T12:44:04.869Z,51.30
2022-12-01T12:46:37.052Z,49.10
2022-12-01T12:49:21.291Z,52.40
2022-12-01T12:51:52.138Z,53.08
2022-12-01T12:54:23.308Z,50.92
2022-12-01T12:56:54.176Z,55.28
2022-12-01T12:59:23.949Z,56.28
2022-12-01T13:01:57.907Z,55.70
2022-12-01T13:04:28.610Z,56.00
2022-12-01T13:06:59.901Z,54.80
2022-12-01T13:09:29.661Z,53.03
2022-12-01T13:12:00.733Z,54.40
2022-12-01T13:14:30.952Z,53.80
2022-12-01T13:17:11.338Z,52.65
2022-12-01T13:19:40.698Z,53.38
2022-12-01T13:22:08.908Z,52.67
2022-12-01T13:24:37.481Z,51.70
2022-12-01T13:27:08.701Z,53.28
2022-12-01T13:29:44.044Z,52.55
2022-12-01T13:32:30.306Z,49.95
2022-12-01T13:34:58.428Z,52.15
2022-12-01T13:37:27.292Z,51.38
2022-12-01T13:39:55.529Z,53.80
2022-12-01T13:42:24.384Z,52.55
2022-12-01T13:44:53.622Z,52.72
2022-12-01T13:47:40.232Z,51.53
2022-12-01T13:50:54.239Z,48.13
2022-12-01T13:53:27.220Z,49.47
2022-12-01T13:56:00.935Z,46.35
2022-12-01T13:58:45.149Z,43.67
2022-12-01T14:01:43.768Z,45.67
2022-12-01T14:04:40.935Z,43.55
2022-12-01T14:07:24.074Z,46.22
2022-12-01T14:09:53.048Z,41.88
2022-12-01T14:12:23.188Z,39.95
2022-12-01T14:14:55.382Z,39.70
2022-12-01T14:17:26.908Z,40.22
2022-12-01T14:19:56.788Z,40.67
2022-12-01T14:22:35.709Z,37.13
2022-12-01T14:25:05.650Z,37.85
2022-12-01T14:27:37.899Z,37.92
2022-12-01T14:30:51.998Z,35.95
2022-12-01T14:33:42.253Z,39.38
2022-12-01T14:36:24.556Z,35.28
2022-12-01T14:38:54.321Z,34.63
2022-12-01T14:41:25.431Z,36.35
2022-12-01T14:44:07.586Z,33.20
2022-12-01T14:46:44.618Z,32.33
2022-12-01T14:49:14.718Z,32.28
2022-12-01T14:51:46.261Z,32.00
2022-12-01T14:54:19.332Z,35.35
2022-12-01T14:56:48.106Z,29.80
2022-12-01T14:59:21.044Z,32.05
2022-12-01T15:01:50.599Z,31.40
2022-12-01T15:04:19.008Z,33.63
2022-12-01T15:06:48.698Z,30.85
2022-12-01T15:09:36.013Z,32.15
2022-12-01T15:12:07.861Z,32.60
2022-12-01T15:14:37.207Z,30.33
2022-12-01T15:17:06.334Z,30.95
2022-12-01T15:19:37.289Z,30.52
2022-12-01T15:22:13.928Z,28.30
2022-12-01T15:24:42.347Z,29.35
2022-12-01T15:27:27.597Z,32.33
2022-12-01T15:29:56.164Z,32.53
2022-12-01T15:32:24.670Z,34.47
2022-12-01T15:34:54.202Z,33.72
2022-12-01T15:37:24.995Z,31.88
2022-12-01T15:40:00.831Z,32.10
2022-12-01T15:42:40.982Z,34.58
2022-12-01T15:45:18.537Z,30.58
2022-12-01T15:47:48.100Z,32.28
2022-12-01T15:50:29.722Z,31.77
2022-12-01T15:52:59.873Z,31.65
2022-12-01T15:55:29.511Z,30.90
2022-12-01T15:57:57.816Z,33.55
2022-12-01T16:00:26.204Z,32.00
2022-12-01T16:02:56.633Z,30.23
2022-12-01T16:05:27.102Z,31.80
2022-12-01T16:10:45.353Z,31.40
2022-12-01T16:13:36.840Z,33.17
2022-12-01T16:16:29.573Z,31.27
2022-12-01T16:18:59.187Z,31.25
2022-12-01T16:21:27.541Z,32.78
2022-12-01T16:24:04.237Z,32.45
2022-12-01T16:26:34.000Z,33.42
2022-12-01T16:29:02.303Z,33.95
2022-12-01T16:31:30.588Z,32.47
2022-12-01T16:34:13.768Z,35.88
2022-12-01T16:36:47.298Z,35.33
2022-12-01T16:39:15.609Z,37.05
2022-12-01T16:41:46.915Z,37.03
2022-12-01T16:44:30.877Z,46.45
2022-12-01T16:46:59.138Z,37.20
2022-12-01T16:49:27.348Z,41.63
2022-12-01T16:51:57.128Z,39.58
2022-12-01T16:54:26.573Z,39.80
2022-12-01T16:56:56.269Z,44.17
2022-12-01T16:59:25.271Z,40.65
2022-12-01T17:01:53.687Z,35.13
2022-12-01T17:04:21.901Z,43.30
2022-12-01T17:06:50.193Z,48.67
2022-12-01T17:09:18.380Z,44.35
2022-12-01T17:11:46.664Z,43.42
2022-12-01T17:14:16.373Z,39.45
2022-12-01T17:16:44.579Z,39.65
2022-12-01T17:19:12.923Z,40.45
2022-12-01T17:21:41.330Z,40.70
2022-12-01T17:24:09.781Z,39.78
2022-12-01T17:26:38.309Z,37.97
2022-12-01T17:29:06.541Z,39.85
2022-12-01T17:31:37.033Z,38.03
2022-12-01T17:34:05.411Z,38.40
2022-12-01T17:36:34.212Z,35.67
2022-12-01T17:39:02.507Z,38.60
2022-12-01T17:41:35.761Z,33.83
2022-12-01T17:44:04.544Z,41.35
2022-12-01T17:46:32.814Z,43.30
2022-12-01T17:49:08.677Z,37.78
2022-12-01T17:51:37.041Z,37.95
2022-12-01T17:54:05.537Z,34.35
2022-12-01T17:56:33.997Z,37.47
2022-12-01T17:59:02.219Z,39.78
2022-12-01T18:01:30.858Z,35.85
2022-12-01T18:03:59.371Z,34.90
2022-12-01T18:06:29.080Z,34.70
2022-12-01T18:08:57.733Z,38.17
2022-12-01T18:11:26.082Z,33.92
2022-12-01T18:13:54.407Z,34.30
2022-12-01T18:16:23.812Z,34.70
2022-12-01T18:18:52.404Z,34.17
2022-12-01T18:21:22.821Z,30.67
2022-12-01T18:23:53.138Z,31.17
2022-12-01T18:26:22.936Z,31.77
2022-12-01T18:28:54.990Z,33.25
2022-12-01T18:31:23.451Z,33.72
2022-12-01T18:33:52.042Z,33.20
2022-12-01T18:36:21.161Z,32.33
2022-12-01T18:38:49.386Z,31.52
2022-12-01T18:41:19.577Z,33.00
2022-12-01T18:43:47.865Z,35.67
2022-12-01T18:46:17.173Z,34.83
2022-12-01T18:48:45.945Z,35.50
2022-12-01T18:51:14.175Z,40.58
2022-12-01T18:53:42.498Z,42.45
2022-12-01T18:56:11.972Z,43.25
2022-12-01T18:58:42.042Z,44.45
2022-12-01T19:01:19.349Z,43.92
2022-12-01T19:03:48.195Z,47.63
2022-12-01T19:06:16.755Z,47.72
2022-12-01T19:08:46.934Z,46.30
2022-12-01T19:11:15.413Z,50.90
2022-12-01T19:13:45.337Z,47.20
2022-12-01T19:16:15.364Z,47.72
2022-12-01T19:18:43.769Z,48.80
2022-12-01T19:21:13.640Z,48.17
2022-12-01T19:23:42.412Z,49.50
2022-12-01T19:26:17.167Z,54.08
2022-12-01T19:28:48.004Z,47.42
2022-12-01T19:31:18.222Z,45.40
2022-12-01T19:33:46.568Z,46.17
2022-12-01T19:36:16.874Z,47.30
2022-12-01T19:38:45.737Z,48.83
2022-12-01T19:41:14.637Z,47.53
2022-12-01T19:43:43.437Z,46.78
2022-12-01T19:46:14.795Z,45.47
2022-12-01T19:48:43.282Z,48.00
2022-12-01T19:51:17.442Z,44.67
2022-12-01T19:53:45.717Z,46.33
2022-12-01T19:56:14.070Z,44.95
2022-12-01T19:58:42.365Z,44.90
2022-12-01T20:01:13.121Z,42.75
2022-12-01T20:03:42.993Z,40.63
2022-12-01T20:06:13.414Z,39.33
2022-12-01T20:08:42.014Z,40.50
2022-12-01T20:11:10.876Z,40.50
2022-12-01T20:13:41.049Z,40.00
2022-12-01T20:16:10.245Z,39.35
2022-12-01T20:18:40.200Z,40.83
2022-12-01T20:21:09.834Z,36.63
2022-12-01T20:23:39.152Z,37.60
2022-12-01T20:26:08.370Z,36.88
2022-12-01T20:28:36.724Z,36.47
2022-12-01T20:31:05.353Z,34.90
2022-12-01T20:33:33.748Z,36.53
2022-12-01T20:36:03.713Z,34.42
2022-12-01T20:38:32.169Z,38.53
2022-12-01T20:41:00.442Z,35.17
2022-12-01T20:43:28.952Z,34.65
2022-12-01T20:45:57.462Z,36.78
2022-12-01T20:48:25.779Z,34.28
2022-12-01T20:50:54.018Z,35.00
2022-12-01T20:53:23.918Z,35.08
2022-12-01T20:55:52.161Z,34.63
2022-12-01T20:58:21.737Z,32.20
2022-12-01T21:00:50.384Z,31.42
2022-12-01T21:03:18.909Z,31.55
2022-12-01T21:05:47.107Z,31.50
2022-12-01T21:08:15.424Z,33.13
2022-12-01T21:10:50.724Z,32.83
2022-12-01T21:13:37.556Z,30.45
2022-12-01T21:16:12.348Z,31.40
2022-12-01T21:18:45.963Z,31.83
2022-12-01T21:21:22.538Z,28.85
2022-12-01T21:24:01.736Z,34.72
2022-12-01T21:26:31.429Z,30.10
2022-12-01T21:29:00.621Z,31.13
2022-12-01T21:31:29.199Z,30.42
2022-12-01T21:33:57.526Z,29.38
2022-12-01T21:36:25.633Z,27.98
2022-12-01T21:38:55.903Z,28.75
2022-12-01T21:41:26.237Z,27.70
2022-12-01T21:43:57.617Z,29.38
2022-12-01T21:46:25.810Z,29.05
2022-12-01T21:48:53.979Z,29.02
2022-12-01T21:51:23.076Z,26.42
2022-12-01T21:53:51.618Z,25.50
2022-12-01T21:56:22.563Z,28.10
2022-12-01T21:58:50.808Z,24.88
2022-12-01T22:01:27.027Z,26.13
2022-12-01T22:04:00.520Z,27.45
2022-12-01T22:06:34.008Z,27.60
2022-12-01T22:09:03.462Z,24.80
2022-12-01T22:11:32.201Z,29.95
2022-12-01T22:14:12.728Z,27.85
2022-12-01T22:16:43.974Z,27.08
2022-12-01T22:19:24.169Z,25.50
2022-12-01T22:22:02.080Z,26.05
2022-12-01T22:24:40.575Z,24.45
2022-12-01T22:27:29.812Z,24.88
2022-12-01T22:29:59.711Z,25.88
2022-12-01T22:32:55.911Z,22.73
2022-12-01T22:35:35.681Z,24.42
2022-12-01T22:38:20.541Z,23.27
2022-12-01T22:40:56.904Z,21.52
2022-12-01T22:43:30.193Z,23.75
2022-12-01T22:46:12.463Z,25.65
2022-12-01T22:48:43.098Z,22.55
2022-12-01T22:51:23.261Z,21.55
2022-12-01T22:53:53.307Z,22.63
2022-12-01T22:56:27.821Z,21.73
2022-12-01T22:58:56.748Z,21.63
2022-12-01T23:01:28.282Z,21.15
2022-12-01T23:04:21.763Z,20.27
2022-12-01T23:07:01.379Z,21.17
2022-12-01T23:09:33.910Z,21.02
2022-12-01T23:12:07.245Z,21.48
2022-12-01T23:14:35.956Z,20.55
2022-12-01T23:17:07.869Z,19.02
2022-12-01T23:19:37.733Z,20.58
2022-12-01T23:22:06.141Z,19.65
2022-12-01T23:24:34.439Z,20.25
2022-12-01T23:27:02.929Z,18.65
2022-12-01T23:29:31.272Z,19.63
2022-12-01T23:31:59.825Z,19.42
2022-12-01T23:34:28.183Z,19.13
2022-12-01T23:36:58.386Z,18.63
2022-12-01T23:39:30.494Z,20.15
2022-12-01T23:41:59.009Z,18.65
2022-12-01T23:44:32.830Z,19.20
2022-12-01T23:47:01.612Z,17.95
2022-12-01T23:49:31.862Z,18.20
2022-12-01T23:52:02.333Z,18.70
2022-12-01T23:54:31.652Z,18.23
2022-12-01T23:57:02.252Z,19.30
2022-12-01T23:59:30.686Z,18.85
